Time;durP1;ratioP1;P1;durP2;ratioP2;P2;SDS_P1;SDS_P2;PMS_P1;PMS_P2;Temp;Humidity;BMP_temperature;BMP_pressure;BME280_temperature;BME280_humidity;BME280_pressure;Samples;Min_cycle;Max_cycle;Signal;HPM_P1;HPM_P2
2023/01/11 00:01:34;;;;;;;13.03;5.20;;;6.20;99.90;;;;;;4947310;28;20500;-57
2023/01/11 00:04:02;;;;;;;10.97;5.03;;;6.20;99.90;;;;;;4948154;29;20506;-54
2023/01/11 00:06:32;;;;;;;8.20;4.57;;;6.30;99.90;;;;;;4945494;28;20227;-58
2023/01/11 00:09:01;;;;;;;8.17;4.50;;;6.30;99.90;;;;;;4948171;28;20474;-57
2023/01/11 00:11:29;;;;;;;10.70;5.40;;;6.40;99.90;;;;;;4948031;28;20694;-56
2023/01/11 00:13:57;;;;;;;10.17;4.90;;;6.30;99.90;;;;;;4947081;29;20536;-56
2023/01/11 00:16:25;;;;;;;9.60;5.03;;;6.30;99.90;;;;;;4945657;29;20243;-57
2023/01/11 00:18:54;;;;;;;7.20;4.73;;;6.40;99.90;;;;;;4947538;28;20490;-55
2023/01/11 00:21:22;;;;;;;7.53;5.17;;;6.40;99.90;;;;;;4947988;29;21002;-59
2023/01/11 00:23:51;;;;;;;7.10;4.20;;;6.40;99.90;;;;;;4947235;29;20493;-57
2023/01/11 00:26:19;;;;;;;10.40;4.73;;;6.40;99.90;;;;;;4945139;29;20486;-58
2023/01/11 00:28:48;;;;;;;9.37;5.03;;;6.40;99.90;;;;;;4947121;28;20478;-58
2023/01/11 00:31:16;;;;;;;7.37;4.83;;;6.40;99.90;;;;;;4947120;28;21216;-57
2023/01/11 00:33:45;;;;;;;7.63;5.07;;;6.40;99.90;;;;;;4946977;29;20243;-57
2023/01/11 00:36:13;;;;;;;7.97;4.13;;;6.40;99.90;;;;;;4945641;29;20485;-57
2023/01/11 00:38:45;;;;;;;7.53;4.93;;;6.40;99.90;;;;;;4946887;29;20474;-56
2023/01/11 00:49:40;;;;;;;8.43;4.90;;;6.50;99.90;;;;;;4947618;29;20822;-57
2023/01/11 00:52:09;;;;;;;4.93;4.10;;;6.50;99.90;;;;;;4947132;28;20242;-56
2023/01/11 00:54:38;;;;;;;8.60;4.70;;;6.50;99.90;;;;;;4946926;29;21298;-56
2023/01/11 00:57:08;;;;;;;6.40;4.50;;;6.50;99.90;;;;;;4943897;28;20479;-55
2023/01/11 00:59:38;;;;;;;6.30;4.77;;;6.50;99.90;;;;;;4946950;28;20557;-54
2023/01/11 01:02:06;;;;;;;7.70;4.83;;;6.50;99.90;;;;;;4946472;28;20616;-53
2023/01/11 01:04:34;;;;;;;9.07;4.70;;;6.50;99.90;;;;;;4947529;29;20416;-58
2023/01/11 01:07:03;;;;;;;6.23;4.37;;;6.60;99.90;;;;;;4946429;28;20475;-59
2023/01/11 01:09:32;;;;;;;6.37;4.60;;;6.60;99.90;;;;;;4946350;29;20494;-58
2023/01/11 01:12:01;;;;;;;8.17;4.60;;;6.60;99.90;;;;;;4946480;29;20499;-57
2023/01/11 01:14:31;;;;;;;4.03;3.73;;;6.60;99.90;;;;;;4946551;29;20487;-54
2023/01/11 01:17:02;;;;;;;7.57;5.47;;;6.70;99.90;;;;;;4945412;29;20485;-57
2023/01/11 01:19:31;;;;;;;7.23;4.33;;;6.70;99.90;;;;;;4946242;28;20490;-58
2023/01/11 01:22:00;;;;;;;6.83;4.57;;;6.70;99.90;;;;;;4946409;28;20511;-54
2023/01/11 01:24:29;;;;;;;5.87;4.67;;;6.80;99.90;;;;;;4946180;28;20652;-53
2023/01/11 01:26:58;;;;;;;7.70;4.97;;;6.80;99.90;;;;;;4944994;29;20471;-57
2023/01/11 01:29:26;;;;;;;8.30;5.07;;;6.80;99.90;;;;;;4945718;29;20583;-58
2023/01/11 01:31:56;;;;;;;6.70;4.87;;;6.80;99.90;;;;;;4946467;28;20742;-58
2023/01/11 01:34:24;;;;;;;5.43;4.73;;;6.90;99.90;;;;;;4947224;28;20702;-58
2023/01/11 01:36:52;;;;;;;5.77;4.73;;;6.90;99.90;;;;;;4945222;28;20243;-59
2023/01/11 01:39:20;;;;;;;7.90;4.93;;;6.90;99.90;;;;;;4946009;28;20246;-58
2023/01/11 01:41:48;;;;;;;6.57;4.53;;;6.90;99.90;;;;;;4945665;28;20240;-57
2023/01/11 01:44:55;;;;;;;5.20;4.70;;;6.90;99.90;;;;;;4946041;29;20486;-58
2023/01/11 01:47:29;;;;;;;5.67;4.73;;;6.90;99.90;;;;;;4944736;29;20710;-59
2023/01/11 01:49:58;;;;;;;7.50;4.60;;;7.00;99.90;;;;;;4945890;28;20238;-59
2023/01/11 01:52:28;;;;;;;5.30;4.70;;;7.00;99.90;;;;;;4945638;29;20247;-58
2023/01/11 01:54:59;;;;;;;6.90;4.90;;;7.00;99.90;;;;;;4945860;28;20235;-58
2023/01/11 01:57:31;;;;;;;5.13;4.60;;;6.90;99.90;;;;;;4944674;28;20738;-58
2023/01/11 02:00:02;;;;;;;6.70;4.70;;;7.00;99.90;;;;;;4945932;28;20253;-58
2023/01/11 02:02:35;;;;;;;5.10;4.60;;;7.00;99.90;;;;;;4945470;28;20247;-58
2023/01/11 02:05:05;;;;;;;8.50;5.30;;;7.00;99.90;;;;;;4944844;29;20235;-56
2023/01/11 02:07:36;;;;;;;8.03;5.17;;;7.00;99.90;;;;;;4944386;29;20246;-58
2023/01/11 02:10:07;;;;;;;6.40;4.73;;;7.10;99.90;;;;;;4944607;28;20235;-56
2023/01/11 02:12:38;;;;;;;6.10;4.63;;;7.10;99.90;;;;;;4945777;28;20246;-56
2023/01/11 02:15:07;;;;;;;7.80;4.63;;;7.00;99.90;;;;;;4945906;28;20235;-55
2023/01/11 02:17:36;;;;;;;5.07;4.57;;;7.10;99.90;;;;;;4944164;29;21681;-56
2023/01/11 02:20:16;;;;;;;5.30;4.50;;;7.10;99.90;;;;;;4945924;29;20224;-58
2023/01/11 02:23:15;;;;;;;5.07;4.63;;;7.10;99.90;;;;;;4945119;29;20241;-58
2023/01/11 02:26:14;;;;;;;6.13;4.90;;;7.10;99.90;;;;;;4944824;29;20246;-55
2023/01/11 02:28:50;;;;;;;5.80;5.03;;;7.10;99.90;;;;;;4942892;29;20228;-58
2023/01/11 02:31:28;;;;;;;6.30;5.40;;;7.10;99.90;;;;;;4944281;28;20479;-56
2023/01/11 02:34:09;;;;;;;9.20;5.37;;;7.20;99.90;;;;;;4945862;29;20270;-55
2023/01/11 02:36:47;;;;;;;7.00;5.50;;;7.20;99.90;;;;;;4944185;29;20580;-58
2023/01/11 02:39:21;;;;;;;6.83;5.17;;;7.20;99.90;;;;;;4944866;29;20242;-55
2023/01/11 02:45:01;;;;;;;8.00;5.50;;;7.30;99.90;;;;;;4945131;28;20695;-58
2023/01/11 02:47:38;;;;;;;6.73;6.10;;;7.30;99.90;;;;;;4944066;29;20486;-58
2023/01/11 02:50:13;;;;;;;6.07;5.27;;;7.30;99.90;;;;;;4945197;29;20297;-56
2023/01/11 02:52:50;;;;;;;6.00;5.00;;;7.40;99.90;;;;;;4944020;29;20725;-56
2023/01/11 02:55:24;;;;;;;6.43;5.60;;;7.40;99.90;;;;;;4944090;28;20231;-59
2023/01/11 02:57:54;;;;;;;5.80;5.30;;;7.40;99.90;;;;;;4943791;29;20241;-54
2023/01/11 03:00:24;;;;;;;6.03;5.43;;;7.40;99.90;;;;;;4944528;28;20245;-57
2023/01/11 03:03:12;;;;;;;5.80;5.30;;;7.50;99.90;;;;;;4944866;29;21222;-57
2023/01/11 03:05:47;;;;;;;5.70;5.27;;;7.50;99.90;;;;;;4945110;28;20227;-58
2023/01/11 03:08:30;;;;;;;5.90;5.33;;;7.50;99.90;;;;;;4943829;29;20238;-58
2023/01/11 03:11:04;;;;;;;5.37;4.83;;;7.50;99.90;;;;;;4944518;28;20235;-57
2023/01/11 03:13:40;;;;;;;6.83;5.43;;;7.50;99.90;;;;;;4944728;29;20246;-57
2023/01/11 03:16:23;;;;;;;6.40;5.70;;;7.60;99.90;;;;;;4943838;28;20235;-57
2023/01/11 03:18:57;;;;;;;6.37;5.57;;;7.60;99.90;;;;;;4944477;29;20321;-58
2023/01/11 03:21:42;;;;;;;6.10;5.37;;;7.70;99.90;;;;;;4944214;29;20258;-55
2023/01/11 03:24:19;;;;;;;5.80;5.30;;;7.60;99.90;;;;;;4944648;29;20231;-58
2023/01/11 03:26:59;;;;;;;6.23;5.70;;;7.60;99.90;;;;;;4942745;29;20254;-57
2023/01/11 03:29:32;;;;;;;8.10;6.23;;;7.70;99.90;;;;;;4944178;28;20244;-56
2023/01/11 03:32:17;;;;;;;6.30;5.70;;;7.70;99.90;;;;;;4943801;28;20727;-58
2023/01/11 03:34:52;;;;;;;7.10;6.50;;;7.70;99.90;;;;;;4944180;29;20235;-57
2023/01/11 03:37:26;;;;;;;5.80;5.30;;;7.70;99.90;;;;;;4942526;29;20226;-59
2023/01/11 03:40:02;;;;;;;5.83;5.23;;;7.80;99.90;;;;;;4944178;29;20565;-55
2023/01/11 03:42:33;;;;;;;6.53;5.93;;;7.70;99.90;;;;;;4944855;29;20227;-58
2023/01/11 03:45:03;;;;;;;6.20;5.70;;;7.80;99.90;;;;;;4944208;29;20247;-57
2023/01/11 03:47:34;;;;;;;7.03;5.80;;;7.80;99.90;;;;;;4943025;29;20239;-57
2023/01/11 03:50:06;;;;;;;5.47;4.73;;;7.80;99.90;;;;;;4944216;28;20258;-58
2023/01/11 03:52:40;;;;;;;6.93;6.23;;;7.80;99.90;;;;;;4944477;29;20247;-58
2023/01/11 03:55:12;;;;;;;5.80;5.30;;;7.80;99.90;;;;;;4944121;29;20235;-58
2023/01/11 03:57:46;;;;;;;6.27;5.77;;;7.80;99.90;;;;;;4943447;29;20238;-57
2023/01/11 04:00:14;;;;;;;7.00;6.00;;;7.80;99.90;;;;;;4943259;28;20650;-58
2023/01/11 04:02:43;;;;;;;5.53;5.03;;;7.80;99.90;;;;;;4943504;29;20243;-54
2023/01/11 04:05:12;;;;;;;5.87;5.30;;;7.90;99.90;;;;;;4943992;29;20235;-58
2023/01/11 04:07:40;;;;;;;6.60;6.00;;;7.80;99.90;;;;;;4942577;29;20235;-54
2023/01/11 04:10:09;;;;;;;5.73;5.23;;;7.90;99.90;;;;;;4944192;29;20243;-58
2023/01/11 04:12:37;;;;;;;5.90;5.37;;;7.90;99.90;;;;;;4944109;29;20238;-56
2023/01/11 04:15:08;;;;;;;6.27;5.67;;;7.90;99.90;;;;;;4944722;29;20376;-56
2023/01/11 04:17:36;;;;;;;5.70;5.13;;;7.90;99.90;;;;;;4942660;28;20239;-55
2023/01/11 04:20:07;;;;;;;5.47;4.97;;;7.90;99.90;;;;;;4943701;29;20227;-55
2023/01/11 04:22:35;;;;;;;5.20;4.80;;;7.90;99.90;;;;;;4944435;29;20231;-58
2023/01/11 04:25:03;;;;;;;4.90;4.50;;;8.00;99.90;;;;;;4943478;29;20239;-55
2023/01/11 04:27:31;;;;;;;5.50;5.07;;;8.00;99.90;;;;;;4942827;29;20598;-57
2023/01/11 04:29:59;;;;;;;5.23;4.83;;;8.00;99.90;;;;;;4943872;29;20691;-58
2023/01/11 04:32:27;;;;;;;5.03;4.53;;;8.00;99.90;;;;;;4944045;28;20235;-58
2023/01/11 04:34:55;;;;;;;5.10;4.60;;;8.00;99.90;;;;;;4947314;29;20247;-59
2023/01/11 04:37:25;;;;;;;5.07;4.67;;;8.00;99.90;;;;;;4946235;28;20247;-56
2023/01/11 04:39:53;;;;;;;5.27;4.80;;;8.00;99.90;;;;;;4947079;29;20647;-58
2023/01/11 04:42:20;;;;;;;4.80;4.33;;;8.00;99.90;;;;;;4947158;29;20236;-58
2023/01/11 04:44:50;;;;;;;5.13;4.67;;;8.10;99.90;;;;;;4947056;28;20232;-56
2023/01/11 04:47:19;;;;;;;5.50;5.00;;;8.10;99.90;;;;;;4946083;28;20699;-58
2023/01/11 04:49:48;;;;;;;4.83;4.43;;;8.10;99.90;;;;;;4946728;28;20243;-57
2023/01/11 04:52:17;;;;;;;5.50;4.30;;;8.10;99.90;;;;;;4947226;28;20235;-55
2023/01/11 04:54:47;;;;;;;5.30;4.87;;;8.20;99.90;;;;;;4945729;29;20639;-57
2023/01/11 04:57:16;;;;;;;4.87;4.47;;;8.20;99.90;;;;;;4945359;29;20236;-58
2023/01/11 04:59:45;;;;;;;4.77;4.40;;;8.20;99.90;;;;;;4946323;29;20235;-56
2023/01/11 05:02:13;;;;;;;4.57;4.17;;;8.20;99.90;;;;;;4946204;28;20247;-56
2023/01/11 05:04:41;;;;;;;5.63;5.13;;;8.20;99.90;;;;;;4946287;29;20807;-58
2023/01/11 05:07:10;;;;;;;4.67;4.27;;;8.30;99.90;;;;;;4946929;28;20239;-59
2023/01/11 05:09:39;;;;;;;4.90;4.27;;;8.30;99.90;;;;;;4947001;28;20254;-57
2023/01/11 05:12:09;;;;;;;4.50;4.03;;;8.30;99.90;;;;;;4946921;28;20707;-58
2023/01/11 05:14:37;;;;;;;4.50;4.10;;;8.30;99.90;;;;;;4946755;29;20231;-58
2023/01/11 05:17:05;;;;;;;6.03;4.30;;;8.30;99.90;;;;;;4945887;29;20589;-58
2023/01/11 05:19:33;;;;;;;4.33;3.90;;;8.40;99.90;;;;;;4946855;29;20255;-56
2023/01/11 05:22:01;;;;;;;5.00;3.90;;;8.40;99.90;;;;;;4946385;29;20857;-57
2023/01/11 05:24:29;;;;;;;4.03;3.70;;;8.40;99.90;;;;;;4946609;28;20235;-59
2023/01/11 05:26:57;;;;;;;4.17;3.77;;;8.40;99.90;;;;;;4945328;29;20703;-58
2023/01/11 05:29:27;;;;;;;4.43;3.80;;;8.40;99.90;;;;;;4946333;28;20228;-55
2023/01/11 05:31:56;;;;;;;3.90;3.57;;;8.50;99.90;;;;;;4945543;28;20824;-57
2023/01/11 05:34:24;;;;;;;3.97;3.67;;;8.40;99.90;;;;;;4946553;28;20231;-56
2023/01/11 05:36:52;;;;;;;3.70;3.40;;;8.50;99.90;;;;;;4945030;28;20238;-58
2023/01/11 05:39:21;;;;;;;3.80;3.50;;;8.50;99.90;;;;;;4946546;28;20711;-58
2023/01/11 05:41:49;;;;;;;3.30;3.10;;;8.50;99.90;;;;;;4945144;29;20247;-57
2023/01/11 05:47:05;;;;;;;4.43;3.90;;;8.60;99.90;;;;;;4944991;28;20726;-58
2023/01/11 05:49:33;;;;;;;3.60;3.30;;;8.60;99.90;;;;;;4946112;29;20243;-57
2023/01/11 05:52:01;;;;;;;4.07;3.77;;;8.60;99.90;;;;;;4946195;28;20734;-57
2023/01/11 05:54:29;;;;;;;4.27;3.87;;;8.60;99.90;;;;;;4946084;29;20247;-58
2023/01/11 05:56:57;;;;;;;3.73;3.43;;;8.60;99.90;;;;;;4945063;29;20234;-58
2023/01/11 05:59:26;;;;;;;4.13;3.80;;;8.60;99.90;;;;;;4945703;28;20243;-58
2023/01/11 06:01:54;;;;;;;4.33;3.93;;;8.70;99.90;;;;;;4944639;28;20250;-57
2023/01/11 06:04:23;;;;;;;4.70;4.30;;;8.70;99.90;;;;;;4945854;29;20318;-59
2023/01/11 06:06:51;;;;;;;4.87;4.47;;;8.70;99.90;;;;;;4944208;29;20596;-58
2023/01/11 06:09:19;;;;;;;4.90;4.50;;;8.70;99.90;;;;;;4945734;28;20358;-58
2023/01/11 06:11:49;;;;;;;5.70;4.67;;;8.70;99.90;;;;;;4945429;29;20323;-55
2023/01/11 06:14:17;;;;;;;5.33;4.90;;;8.80;99.90;;;;;;4945546;29;20606;-55
2023/01/11 06:16:45;;;;;;;5.53;4.10;;;8.90;99.90;;;;;;4943789;29;20263;-57
2023/01/11 06:19:14;;;;;;;5.10;4.60;;;8.80;99.90;;;;;;4945342;29;20289;-57
2023/01/11 06:21:43;;;;;;;5.20;4.80;;;8.90;99.90;;;;;;4944571;29;20231;-58
2023/01/11 06:24:11;;;;;;;5.77;5.27;;;8.90;99.90;;;;;;4943048;28;20231;-53
2023/01/11 06:26:39;;;;;;;6.17;5.40;;;8.90;99.90;;;;;;4942235;28;20235;-58
2023/01/11 06:29:07;;;;;;;6.00;5.50;;;8.90;99.90;;;;;;4944539;28;20231;-58
2023/01/11 06:31:35;;;;;;;5.63;5.13;;;8.90;99.90;;;;;;4944430;28;20731;-57
2023/01/11 06:34:03;;;;;;;5.87;5.40;;;8.90;99.90;;;;;;4944687;29;20227;-59
2023/01/11 06:36:31;;;;;;;6.10;5.60;;;9.00;99.90;;;;;;4942858;28;20227;-58
2023/01/11 06:39:02;;;;;;;6.83;6.20;;;8.90;99.90;;;;;;4943102;29;20239;-55
2023/01/11 06:41:30;;;;;;;6.43;5.83;;;8.90;99.90;;;;;;4944700;29;20231;-58
2023/01/11 06:43:58;;;;;;;6.47;5.93;;;9.00;99.90;;;;;;4944409;29;20577;-53
2023/01/11 06:46:26;;;;;;;6.50;5.90;;;9.00;99.90;;;;;;4941218;28;20238;-52
2023/01/11 06:48:56;;;;;;;7.67;6.97;;;9.00;99.90;;;;;;4952799;28;20227;-58
2023/01/11 06:51:24;;;;;;;8.20;7.43;;;9.00;99.90;;;;;;4953993;29;20631;-58
2023/01/11 06:53:52;;;;;;;8.77;7.83;;;9.10;99.90;;;;;;4953389;29;20228;-58
2023/01/11 06:56:22;;;;;;;8.57;7.77;;;9.10;99.90;;;;;;4950683;28;20239;-58
2023/01/11 06:58:51;;;;;;;8.33;7.63;;;9.10;99.90;;;;;;4952064;28;20282;-58
2023/01/11 07:01:19;;;;;;;8.47;7.67;;;9.20;99.90;;;;;;4953648;28;20243;-58
2023/01/11 07:03:48;;;;;;;10.17;9.23;;;9.20;99.90;;;;;;4949010;28;20231;-58
2023/01/11 07:06:16;;;;;;;10.30;9.37;;;9.20;99.90;;;;;;4953220;29;20565;-59
2023/01/11 07:08:44;;;;;;;9.73;8.83;;;9.20;99.90;;;;;;4953656;28;20243;-57
2023/01/11 07:11:14;;;;;;;9.53;8.73;;;9.30;99.90;;;;;;4953583;28;20230;-58
2023/01/11 07:13:44;;;;;;;11.03;10.03;;;9.30;99.90;;;;;;4951921;29;20278;-58
2023/01/11 07:16:12;;;;;;;10.33;9.33;;;9.30;99.90;;;;;;4953514;29;20262;-59
2023/01/11 07:18:40;;;;;;;10.43;9.47;;;9.30;99.90;;;;;;4953904;29;20261;-59
2023/01/11 07:21:09;;;;;;;11.17;10.17;;;9.30;99.90;;;;;;4953592;29;20278;-58
2023/01/11 07:23:39;;;;;;;10.73;9.83;;;9.30;99.90;;;;;;4951770;29;20310;-58
2023/01/11 07:26:08;;;;;;;10.67;9.67;;;9.30;99.90;;;;;;4952215;29;20227;-58
2023/01/11 07:28:37;;;;;;;11.27;10.17;;;9.20;99.90;;;;;;4953433;28;20237;-58
2023/01/11 07:31:08;;;;;;;10.23;9.27;;;9.20;99.90;;;;;;4953267;28;20695;-59
2023/01/11 07:33:37;;;;;;;11.27;10.27;;;9.20;99.90;;;;;;4951704;29;20270;-58
2023/01/11 07:36:06;;;;;;;10.73;9.73;;;9.20;99.90;;;;;;4952948;29;20223;-58
2023/01/11 07:38:35;;;;;;;11.33;10.33;;;9.20;99.90;;;;;;4952672;29;20302;-59
2023/01/11 07:43:10;;;;;;;10.87;9.87;;;9.20;99.90;;;;;;4953598;28;20231;-58
2023/01/11 07:43:52;;;;;;;9.77;8.77;;;9.20;99.90;;;;;;4952979;29;20238;-58
2023/01/11 07:46:22;;;;;;;8.67;7.97;;;9.20;99.90;;;;;;4952173;29;20239;-59
2023/01/11 07:48:51;;;;;;;8.27;7.57;;;9.20;99.90;;;;;;4952356;28;20223;-58
2023/01/11 07:51:22;;;;;;;7.37;5.80;;;9.20;99.90;;;;;;4953833;28;20231;-58
2023/01/11 07:53:51;;;;;;;7.73;5.33;;;9.10;99.90;;;;;;4953554;28;20258;-58
2023/01/11 07:56:20;;;;;;;6.40;4.50;;;9.10;99.90;;;;;;4968523;28;20723;-58
2023/01/11 07:58:50;;;;;;;4.63;4.07;;;9.10;99.90;;;;;;4953482;28;20238;-59
2023/01/11 08:01:19;;;;;;;4.33;3.90;;;9.00;99.90;;;;;;4953400;28;20286;-58
2023/01/11 08:03:50;;;;;;;3.90;3.60;;;9.00;99.90;;;;;;4948003;29;20234;-58
2023/01/11 08:06:18;;;;;;;4.70;4.10;;;9.10;99.90;;;;;;4951094;28;20227;-58
2023/01/11 08:08:47;;;;;;;4.43;4.03;;;9.10;99.90;;;;;;4955121;29;20231;-58
2023/01/11 08:16:47;;;;;;;4.97;4.23;;;9.20;99.90;;;;;;4956971;28;20239;-58
2023/01/11 08:19:17;;;;;;;5.00;4.43;;;9.20;99.90;;;;;;4956849;29;20235;-59
2023/01/11 08:21:46;;;;;;;4.30;4.00;;;9.10;99.90;;;;;;4956523;28;20315;-57
2023/01/11 08:24:14;;;;;;;4.80;4.17;;;9.20;99.90;;;;;;4956596;28;20725;-58
2023/01/11 08:26:44;;;;;;;4.60;4.20;;;9.20;99.90;;;;;;4955698;28;20231;-58
2023/01/11 08:29:12;;;;;;;4.73;4.33;;;9.20;99.90;;;;;;4956669;28;20234;-58
2023/01/11 08:31:43;;;;;;;7.63;3.93;;;9.20;99.90;;;;;;4954189;28;20263;-59
2023/01/11 08:34:12;;;;;;;4.30;3.93;;;9.20;99.90;;;;;;4955343;29;20224;-57
2023/01/11 08:36:42;;;;;;;4.30;3.90;;;9.30;99.90;;;;;;4954061;28;20553;-58
2023/01/11 08:39:10;;;;;;;4.90;3.77;;;9.30;99.90;;;;;;4951930;29;20282;-58
2023/01/11 08:41:39;;;;;;;6.50;3.90;;;9.30;99.90;;;;;;4957021;28;20247;-58
2023/01/11 08:44:08;;;;;;;4.47;3.00;;;9.30;99.90;;;;;;4956596;28;20287;-59
2023/01/11 08:46:36;;;;;;;4.07;2.80;;;9.30;99.90;;;;;;4956523;28;20227;-59
2023/01/11 08:49:10;;;;;;;6.30;2.60;;;9.30;99.90;;;;;;4956596;29;20314;-58
2023/01/11 08:51:39;;;;;;;4.27;2.90;;;9.30;99.90;;;;;;4956522;28;20238;-58
2023/01/11 08:54:11;;;;;;;2.93;2.60;;;9.30;99.90;;;;;;4956398;28;20223;-58
2023/01/11 08:56:40;;;;;;;3.23;2.93;;;9.30;99.90;;;;;;4956642;28;20702;-59
2023/01/11 08:59:10;;;;;;;3.63;3.00;;;9.30;99.90;;;;;;4954273;28;20231;-58
2023/01/11 09:01:39;;;;;;;3.57;3.20;;;9.20;99.90;;;;;;4955050;28;20731;-59
2023/01/11 09:04:07;;;;;;;4.73;3.23;;;9.30;99.90;;;;;;4956071;28;20231;-58
2023/01/11 09:06:51;;;;;;;2.77;2.47;;;9.30;99.90;;;;;;4955481;29;20278;-58
2023/01/11 09:09:20;;;;;;;5.73;3.27;;;9.40;99.90;;;;;;4956340;29;20239;-58
2023/01/11 09:11:55;;;;;;;4.23;3.00;;;9.40;99.90;;;;;;4956421;28;20718;-58
2023/01/11 09:14:25;;;;;;;5.40;3.27;;;9.50;99.90;;;;;;4952308;29;20231;-59
2023/01/11 09:16:53;;;;;;;5.33;3.20;;;9.50;99.90;;;;;;4956351;28;20710;-59
2023/01/11 09:19:22;;;;;;;5.07;3.50;;;9.40;99.90;;;;;;4955600;28;20238;-57
2023/01/11 09:21:51;;;;;;;6.53;3.50;;;9.40;99.90;;;;;;4956258;28;20231;-59
2023/01/11 09:24:21;;;;;;;3.77;3.30;;;9.30;99.90;;;;;;4955230;29;20597;-58
2023/01/11 09:26:49;;;;;;;5.33;4.00;;;9.30;99.90;;;;;;4955682;28;20707;-59
2023/01/11 09:29:17;;;;;;;5.17;3.73;;;9.30;99.90;;;;;;4954967;29;20275;-59
2023/01/11 09:31:45;;;;;;;6.63;3.50;;;9.30;99.90;;;;;;4953513;28;20267;-58
2023/01/11 09:34:15;;;;;;;5.93;3.23;;;9.30;99.90;;;;;;4955790;28;20243;-58
2023/01/11 09:36:45;;;;;;;5.43;2.93;;;9.30;99.90;;;;;;4955317;28;20242;-58
2023/01/11 09:39:17;;;;;;;5.43;2.97;;;9.30;99.90;;;;;;4951014;29;20223;-59
2023/01/11 09:42:11;;;;;;;6.03;2.90;;;9.30;99.90;;;;;;4955310;28;20240;-58
2023/01/11 09:44:49;;;;;;;8.00;3.30;;;9.40;99.90;;;;;;4951994;29;20247;-59
2023/01/11 09:47:25;;;;;;;6.07;2.40;;;9.40;99.90;;;;;;4955124;29;20226;-59
2023/01/11 09:49:57;;;;;;;4.07;2.80;;;9.40;99.90;;;;;;4953434;29;20238;-59
2023/01/11 09:52:31;;;;;;;6.77;3.10;;;9.40;99.90;;;;;;4955196;28;20238;-58
2023/01/11 09:55:01;;;;;;;6.30;2.70;;;9.40;99.90;;;;;;4954748;29;20227;-59
2023/01/11 09:57:43;;;;;;;4.97;2.50;;;9.40;99.90;;;;;;4955422;29;20282;-58
2023/01/11 10:00:21;;;;;;;5.63;2.67;;;9.30;99.90;;;;;;4951792;28;20231;-56
2023/01/11 10:03:06;;;;;;;5.57;2.60;;;9.40;99.90;;;;;;4954837;28;20642;-58
2023/01/11 10:05:52;;;;;;;4.47;2.10;;;9.30;99.90;;;;;;4955021;28;20721;-58
2023/01/11 10:08:39;;;;;;;4.67;2.50;;;9.30;99.90;;;;;;4955554;28;20231;-58
2023/01/11 10:11:40;;;;;;;3.70;1.90;;;9.30;99.90;;;;;;4955161;28;20282;-56
2023/01/11 10:14:41;;;;;;;7.77;2.47;;;9.30;99.90;;;;;;4951017;29;20246;-58
2023/01/11 10:17:40;;;;;;;5.97;2.00;;;9.40;99.90;;;;;;4953487;28;20274;-58
2023/01/11 10:20:36;;;;;;;4.03;2.07;;;9.30;99.90;;;;;;4953750;29;20223;-58
2023/01/11 10:23:11;;;;;;;6.73;2.43;;;9.40;99.90;;;;;;4954867;28;20258;-58
2023/01/11 10:25:49;;;;;;;5.13;2.13;;;9.30;99.90;;;;;;4950104;28;20231;-59
2023/01/11 10:28:26;;;;;;;5.57;2.00;;;9.40;99.90;;;;;;4952030;29;20223;-59
2023/01/11 10:31:27;;;;;;;6.87;2.40;;;9.50;99.90;;;;;;4953644;28;20263;-59
2023/01/11 10:34:17;;;;;;;4.37;2.03;;;9.40;99.90;;;;;;4953757;29;20240;-58
2023/01/11 10:37:09;;;;;;;8.37;2.33;;;9.40;99.90;;;;;;4954511;29;20239;-58
2023/01/11 10:40:05;;;;;;;5.53;2.70;;;9.40;99.90;;;;;;4953870;29;20282;-58
2023/01/11 10:42:42;;;;;;;7.83;2.87;;;9.50;99.90;;;;;;4949744;29;20310;-59
2023/01/11 10:45:16;;;;;;;4.97;2.40;;;9.40;99.90;;;;;;4953753;29;20237;-59
2023/01/11 10:47:55;;;;;;;5.83;2.10;;;9.50;99.90;;;;;;4954517;28;21135;-56
2023/01/11 10:50:28;;;;;;;5.10;2.27;;;9.50;99.90;;;;;;4952836;29;20259;-58
2023/01/11 10:53:03;;;;;;;6.37;2.03;;;9.50;99.90;;;;;;4953869;29;20238;-59
2023/01/11 10:55:39;;;;;;;4.97;2.10;;;9.50;99.90;;;;;;4953776;29;20227;-59
2023/01/11 10:58:18;;;;;;;4.60;1.77;;;9.50;99.90;;;;;;4954059;28;20235;-58
2023/01/11 11:00:57;;;;;;;6.47;1.80;;;9.60;99.90;;;;;;4950517;28;20610;-59
2023/01/11 11:03:48;;;;;;;7.43;1.90;;;9.60;99.90;;;;;;4954238;28;20587;-58
2023/01/11 11:06:25;;;;;;;8.07;1.90;;;9.50;99.90;;;;;;4951973;29;20278;-59
2023/01/11 11:08:58;;;;;;;9.83;2.23;;;9.50;99.90;;;;;;4953566;28;20706;-59
2023/01/11 11:11:35;;;;;;;4.83;1.73;;;9.50;99.90;;;;;;4954285;28;20228;-58
2023/01/11 11:14:12;;;;;;;5.70;1.83;;;9.50;99.90;;;;;;4953228;28;20707;-58
2023/01/11 11:17:01;;;;;;;4.90;2.17;;;9.50;99.90;;;;;;4951659;29;20331;-59
2023/01/11 11:19:32;;;;;;;7.77;2.23;;;9.60;99.90;;;;;;4951542;29;20715;-59
2023/01/11 11:22:00;;;;;;;4.20;1.87;;;9.60;99.90;;;;;;4953200;29;20231;-59
2023/01/11 11:24:35;;;;;;;4.57;1.80;;;9.60;99.90;;;;;;4954199;28;20231;-59
2023/01/11 11:27:14;;;;;;;8.27;2.30;;;9.60;99.90;;;;;;4954026;28;20231;-59
2023/01/11 11:29:49;;;;;;;8.67;2.43;;;9.70;99.90;;;;;;4953621;28;20597;-59
2023/01/11 11:32:22;;;;;;;7.90;2.20;;;9.70;99.90;;;;;;4953670;28;20230;-58
2023/01/11 11:34:53;;;;;;;7.47;2.57;;;9.70;99.90;;;;;;4953823;28;20226;-59
2023/01/11 11:37:24;;;;;;;8.53;2.60;;;9.80;99.90;;;;;;4953130;29;20235;-59
2023/01/11 11:39:53;;;;;;;10.73;2.83;;;9.70;99.90;;;;;;4951038;29;20261;-59
2023/01/11 11:42:22;;;;;;;8.53;2.87;;;9.80;99.90;;;;;;4955080;28;20598;-59
2023/01/11 11:45:15;;;;;;;5.43;2.50;;;9.80;99.90;;;;;;4957380;28;20228;-57
2023/01/11 11:48:00;;;;;;;7.30;2.83;;;9.80;99.90;;;;;;4956401;29;20254;-59
2023/01/11 11:50:31;;;;;;;9.07;3.10;;;9.80;99.90;;;;;;4957819;28;20227;-59
2023/01/11 11:53:23;;;;;;;7.77;2.97;;;9.80;99.90;;;;;;4957892;29;20653;-59
2023/01/11 11:55:52;;;;;;;7.87;2.87;;;9.80;99.90;;;;;;4957581;28;20686;-59
2023/01/11 11:58:22;;;;;;;13.17;3.17;;;9.80;99.90;;;;;;4957601;29;20239;-59
2023/01/11 12:00:53;;;;;;;8.83;3.20;;;9.80;99.90;;;;;;4955329;28;20235;-59
2023/01/11 12:03:24;;;;;;;7.63;2.90;;;9.80;99.90;;;;;;4957056;28;20309;-58
2023/01/11 12:06:00;;;;;;;9.80;3.30;;;9.80;99.90;;;;;;4957175;28;20220;-59
2023/01/11 12:08:31;;;;;;;5.40;2.70;;;9.80;99.90;;;;;;4957212;29;20778;-58
2023/01/11 12:11:01;;;;;;;7.80;2.90;;;9.80;99.90;;;;;;4957162;28;20227;-58
2023/01/11 12:13:32;;;;;;;8.07;3.20;;;9.80;99.90;;;;;;4956490;29;20263;-59
2023/01/11 12:16:01;;;;;;;7.13;3.30;;;9.80;99.90;;;;;;4955504;29;21329;-58
2023/01/11 12:18:39;;;;;;;9.27;3.37;;;9.80;99.90;;;;;;4956953;28;20239;-58
2023/01/11 12:21:20;;;;;;;7.07;2.90;;;9.90;99.90;;;;;;4956065;28;20638;-59
2023/01/11 12:24:02;;;;;;;13.20;3.23;;;9.80;99.90;;;;;;4955577;29;20239;-59
2023/01/11 12:26:34;;;;;;;9.90;3.40;;;9.80;99.90;;;;;;4954891;29;20246;-58
2023/01/11 12:29:28;;;;;;;9.17;3.30;;;9.80;99.90;;;;;;4956293;28;20231;-59
2023/01/11 12:32:17;;;;;;;8.73;3.40;;;9.80;99.90;;;;;;4955619;28;20267;-59
2023/01/11 12:35:06;;;;;;;11.87;3.00;;;9.80;99.90;;;;;;4956953;28;20231;-59
2023/01/11 12:37:54;;;;;;;9.57;3.53;;;9.80;99.90;;;;;;4954919;29;20591;-59
2023/01/11 12:40:34;;;;;;;9.90;3.30;;;9.80;99.90;;;;;;4955254;29;20234;-59
2023/01/11 12:43:23;;;;;;;11.23;3.20;;;9.80;99.90;;;;;;4956652;28;20242;-58
2023/01/11 12:46:02;;;;;;;10.97;3.23;;;9.80;99.90;;;;;;4954882;29;20587;-59
2023/01/11 12:48:51;;;;;;;8.40;3.13;;;9.80;99.90;;;;;;4953420;29;20231;-58
2023/01/11 12:51:33;;;;;;;11.57;2.80;;;9.90;99.90;;;;;;4956685;29;20234;-59
2023/01/11 12:54:17;;;;;;;9.93;2.70;;;9.90;99.90;;;;;;4954047;28;20560;-59
2023/01/11 12:57:06;;;;;;;8.57;3.30;;;9.90;99.90;;;;;;4953233;29;20235;-59
2023/01/11 12:59:53;;;;;;;10.43;3.07;;;9.90;99.90;;;;;;4954132;28;20235;-59
2023/01/11 13:02:41;;;;;;;11.07;3.40;;;9.90;99.90;;;;;;4955761;28;20611;-59
2023/01/11 13:05:22;;;;;;;10.87;3.30;;;10.00;99.90;;;;;;4954794;29;20227;-59
2023/01/11 13:08:02;;;;;;;10.70;3.20;;;10.10;99.90;;;;;;4954267;29;20807;-57
2023/01/11 13:10:46;;;;;;;13.30;3.37;;;10.10;99.90;;;;;;4955192;28;20223;-59
2023/01/11 13:13:20;;;;;;;9.97;2.63;;;10.20;99.90;;;;;;4950852;29;20231;-58
2023/01/11 13:15:56;;;;;;;9.40;2.47;;;10.20;99.90;;;;;;4956062;28;20235;-58
2023/01/11 13:18:32;;;;;;;9.07;2.33;;;10.10;99.90;;;;;;4956159;28;20243;-58
2023/01/11 13:21:07;;;;;;;10.17;2.37;;;10.10;99.90;;;;;;4955278;28;20227;-58
2023/01/11 13:23:41;;;;;;;14.90;2.67;;;10.00;99.90;;;;;;4954548;28;20245;-58
2023/01/11 13:26:19;;;;;;;7.53;1.90;;;10.00;99.90;;;;;;4955505;28;20222;-58
2023/01/11 13:28:53;;;;;;;7.60;1.87;;;10.00;99.90;;;;;;4954836;28;20223;-58
2023/01/11 13:31:22;;;;;;;12.77;3.10;;;10.00;99.90;;;;;;4953085;28;20234;-57
2023/01/11 13:33:57;;;;;;;7.77;2.17;;;9.90;99.90;;;;;;4954905;28;20224;-57
2023/01/11 13:36:30;;;;;;;11.53;2.30;;;9.90;99.90;;;;;;4953545;29;20220;-57
2023/01/11 13:39:03;;;;;;;11.33;2.20;;;9.90;99.90;;;;;;4955096;29;20312;-58
2023/01/11 13:41:45;;;;;;;10.43;2.33;;;9.80;99.90;;;;;;4955378;28;20703;-58
2023/01/11 13:44:19;;;;;;;8.90;2.30;;;9.80;99.90;;;;;;4953986;29;20235;-57
2023/01/11 13:46:59;;;;;;;8.53;2.10;;;9.70;99.90;;;;;;4953349;29;20725;-58